Time;durP1;ratioP1;P1;durP2;ratioP2;P2;SDS_P1;SDS_P2;PMS_P1;PMS_P2;Temp;Humidity;BMP_temperature;BMP_pressure;BME280_temperature;BME280_humidity;BME280_pressure;Samples;Min_cycle;Max_cycle;Signal;HPM_P1;HPM_P2
2022/09/23 00:00:41;;;;;;;2.67;2.47;;;10.10;1.00;;;;;;5116258;28;20169;-70
2022/09/23 00:03:07;;;;;;;2.67;2.57;;;10.10;1.00;;;;;;5098216;28;20423;-71
2022/09/23 00:05:33;;;;;;;2.70;2.50;;;10.10;1.00;;;;;;5094990;28;20581;-71
2022/09/23 00:07:59;;;;;;;3.57;3.27;;;10.10;1.00;;;;;;5096405;28;20169;-75
2022/09/23 00:10:27;;;;;;;3.93;3.63;;;10.00;1.00;;;;;;5096336;28;20877;-70
2022/09/23 00:12:54;;;;;;;2.60;2.40;;;10.10;1.00;;;;;;5096323;28;20379;-76
2022/09/23 00:15:20;;;;;;;3.20;3.00;;;10.00;1.00;;;;;;5103288;28;20469;-70
2022/09/23 00:17:46;;;;;;;3.03;2.83;;;10.00;1.00;;;;;;5114843;28;20427;-75
2022/09/23 00:20:12;;;;;;;2.83;2.63;;;10.00;1.00;;;;;;5116213;28;20377;-71
2022/09/23 00:22:39;;;;;;;3.50;2.80;;;10.00;1.00;;;;;;5110730;28;20513;-76
2022/09/23 00:25:06;;;;;;;3.00;2.80;;;10.00;1.00;;;;;;5095446;28;20853;-71
2022/09/23 00:27:35;;;;;;;2.50;2.30;;;10.00;1.00;;;;;;5096158;28;20432;-71
2022/09/23 00:30:02;;;;;;;2.60;2.40;;;9.90;1.00;;;;;;5102363;28;20397;-76
2022/09/23 00:32:27;;;;;;;3.43;2.77;;;9.90;1.00;;;;;;5116312;28;20438;-70
2022/09/23 00:34:53;;;;;;;2.70;2.50;;;9.90;1.00;;;;;;5115501;28;20996;-71
2022/09/23 00:37:19;;;;;;;2.40;2.30;;;9.90;1.00;;;;;;5115474;28;20180;-76
2022/09/23 00:39:45;;;;;;;2.53;2.20;;;9.90;1.00;;;;;;5116493;28;20201;-70
2022/09/23 00:42:17;;;;;;;2.70;2.50;;;9.90;1.00;;;;;;5114262;28;20397;-73
2022/09/23 00:44:52;;;;;;;2.73;2.37;;;9.90;1.00;;;;;;5094980;28;20413;-71
2022/09/23 00:47:23;;;;;;;2.27;2.13;;;9.90;1.00;;;;;;5095726;28;20400;-71
2022/09/23 00:50:00;;;;;;;2.57;2.37;;;10.00;1.00;;;;;;5095631;28;20883;-70
2022/09/23 00:52:27;;;;;;;5.10;4.70;;;10.00;1.00;;;;;;5095235;28;20402;-71
2022/09/23 00:54:55;;;;;;;5.83;3.73;;;10.00;1.00;;;;;;5093902;28;20869;-70
2022/09/23 00:57:22;;;;;;;3.13;2.83;;;9.90;1.00;;;;;;5096955;28;20442;-71
2022/09/23 00:59:49;;;;;;;2.70;2.50;;;9.90;1.00;;;;;;5115862;28;20377;-76
2022/09/23 01:02:16;;;;;;;3.80;3.20;;;9.90;1.00;;;;;;5115885;28;20473;-72
2022/09/23 01:04:42;;;;;;;2.60;2.40;;;9.90;1.00;;;;;;5093770;28;20953;-71
2022/09/23 01:07:07;;;;;;;2.80;2.50;;;9.90;1.00;;;;;;5094786;28;20461;-76
2022/09/23 01:09:34;;;;;;;2.30;2.20;;;9.90;1.00;;;;;;5095225;28;20253;-70
2022/09/23 01:12:27;;;;;;;9.53;2.57;;;9.90;1.00;;;;;;5094680;28;20205;-70
2022/09/23 01:14:59;;;;;;;2.10;2.00;;;9.90;1.00;;;;;;5076895;28;20434;-69
2022/09/23 01:18:00;;;;;;;4.23;2.57;;;10.00;1.00;;;;;;5115402;28;20377;-71
2022/09/23 01:21:00;;;;;;;2.70;2.50;;;10.00;1.00;;;;;;5067745;28;20389;-70
2022/09/23 01:23:57;;;;;;;2.20;2.07;;;10.10;1.00;;;;;;5076419;28;20418;-70
2022/09/23 01:26:37;;;;;;;2.10;2.00;;;10.10;1.00;;;;;;5115216;28;20397;-70
2022/09/23 01:29:16;;;;;;;1.93;1.83;;;10.10;1.00;;;;;;5110196;28;20406;-70
2022/09/23 01:32:01;;;;;;;2.93;2.73;;;10.10;1.00;;;;;;5076007;28;20430;-71
2022/09/23 01:35:02;;;;;;;2.53;2.43;;;10.10;1.00;;;;;;5093286;28;20899;-77
2022/09/23 01:37:40;;;;;;;1.87;1.77;;;10.10;1.00;;;;;;5076449;28;20413;-75
2022/09/23 01:40:37;;;;;;;2.07;1.97;;;10.10;1.00;;;;;;5094582;28;20366;-76
2022/09/23 01:43:07;;;;;;;4.23;2.00;;;10.10;1.00;;;;;;5094581;28;20487;-70
2022/09/23 01:45:34;;;;;;;2.50;2.30;;;10.00;1.00;;;;;;5093239;28;20401;-74
2022/09/23 01:48:25;;;;;;;2.23;2.13;;;10.00;1.00;;;;;;5094448;28;20382;-70
2022/09/23 01:51:07;;;;;;;2.03;1.93;;;10.00;1.00;;;;;;5093513;28;20469;-70
2022/09/23 01:53:42;;;;;;;2.73;2.20;;;10.00;1.00;;;;;;5094161;28;20385;-70
2022/09/23 01:56:26;;;;;;;13.53;3.60;;;10.00;1.00;;;;;;5094226;28;21018;-70
2022/09/23 01:58:58;;;;;;;2.37;2.20;;;10.10;1.00;;;;;;5114054;28;20488;-75
2022/09/23 02:01:39;;;;;;;2.83;1.93;;;10.10;1.00;;;;;;5114660;28;20406;-71
2022/09/23 02:04:10;;;;;;;2.17;1.97;;;10.00;1.00;;;;;;5113753;28;20497;-76
2022/09/23 02:06:42;;;;;;;2.63;2.43;;;10.10;1.00;;;;;;5114359;28;20398;-76
2022/09/23 02:09:13;;;;;;;2.20;2.00;;;10.00;1.00;;;;;;5113721;28;20495;-70
2022/09/23 02:11:42;;;;;;;2.50;2.30;;;10.10;1.00;;;;;;5112390;28;20393;-76
2022/09/23 02:14:41;;;;;;;2.23;2.03;;;10.10;1.00;;;;;;5095215;28;20761;-71
2022/09/23 02:17:11;;;;;;;3.33;1.90;;;10.10;1.00;;;;;;5114140;28;20401;-76
2022/09/23 02:19:54;;;;;;;2.53;2.33;;;10.10;1.00;;;;;;5114287;28;20402;-76
2022/09/23 02:22:27;;;;;;;2.43;2.20;;;10.10;1.00;;;;;;5114189;28;20486;-76
2022/09/23 02:24:56;;;;;;;2.50;2.40;;;10.20;1.00;;;;;;5113202;28;20389;-76
2022/09/23 02:27:27;;;;;;;2.30;2.10;;;10.20;1.00;;;;;;5082432;28;20842;-71
2022/09/23 02:30:02;;;;;;;2.17;2.07;;;10.20;1.00;;;;;;5093320;28;20431;-76
2022/09/23 02:32:52;;;;;;;2.37;2.27;;;10.30;1.00;;;;;;5093662;28;20563;-76
2022/09/23 02:35:44;;;;;;;3.80;2.47;;;10.30;1.00;;;;;;5092510;28;20434;-76
2022/09/23 02:38:28;;;;;;;2.90;2.33;;;10.30;1.00;;;;;;5107474;28;20401;-70
2022/09/23 02:41:09;;;;;;;2.20;2.03;;;10.40;1.00;;;;;;5113994;28;20726;-76
2022/09/23 02:44:08;;;;;;;2.30;2.10;;;10.40;1.00;;;;;;5113512;28;20373;-70
2022/09/23 02:46:35;;;;;;;1.83;1.73;;;10.40;1.00;;;;;;5068326;28;20419;-70
2022/09/23 02:49:15;;;;;;;2.57;2.20;;;10.50;1.00;;;;;;5113723;28;20427;-69
2022/09/23 02:51:41;;;;;;;2.20;2.10;;;10.50;1.00;;;;;;5111978;28;20934;-70
2022/09/23 02:54:13;;;;;;;2.40;2.20;;;10.50;1.00;;;;;;5112796;28;20418;-70
2022/09/23 02:56:39;;;;;;;2.30;2.20;;;10.60;1.00;;;;;;5113529;28;20449;-70
2022/09/23 02:59:06;;;;;;;2.37;2.17;;;10.60;1.00;;;;;;5113607;28;20373;-75
2022/09/23 03:01:47;;;;;;;2.47;2.27;;;10.60;1.00;;;;;;5112286;28;20422;-76
2022/09/23 03:04:30;;;;;;;5.07;2.07;;;10.60;1.00;;;;;;5112466;28;20503;-76
2022/09/23 03:07:32;;;;;;;2.30;2.10;;;10.60;1.00;;;;;;5113042;28;20372;-76
2022/09/23 03:10:03;;;;;;;2.20;2.10;;;10.70;1.00;;;;;;5113554;28;20384;-75
2022/09/23 03:13:17;;;;;;;2.53;2.23;;;10.70;1.00;;;;;;5097426;28;20425;-76
2022/09/23 03:16:09;;;;;;;2.17;2.07;;;10.60;1.00;;;;;;5009916;28;20464;-70
2022/09/23 03:18:44;;;;;;;2.20;2.10;;;10.70;1.00;;;;;;5091090;28;20412;-69
2022/09/23 03:21:31;;;;;;;1.97;1.87;;;10.70;1.00;;;;;;5097118;28;20373;-70
2022/09/23 03:24:01;;;;;;;2.57;2.37;;;10.70;1.00;;;;;;5095754;28;20379;-70
2022/09/23 03:26:31;;;;;;;2.27;2.17;;;10.70;1.00;;;;;;5096935;28;20965;-70
2022/09/23 03:29:01;;;;;;;3.47;2.50;;;10.70;1.00;;;;;;5097331;28;20402;-76
2022/09/23 03:31:28;;;;;;;2.90;2.43;;;10.80;1.00;;;;;;5097107;28;20875;-71
2022/09/23 03:33:57;;;;;;;2.20;2.10;;;10.80;1.00;;;;;;5078303;28;20883;-70
2022/09/23 03:36:52;;;;;;;2.57;2.40;;;10.80;1.00;;;;;;5096883;28;20565;-76
2022/09/23 03:39:40;;;;;;;2.10;2.00;;;10.80;1.00;;;;;;5097123;28;20852;-70
2022/09/23 03:42:15;;;;;;;2.53;2.33;;;10.90;1.00;;;;;;5095905;28;20424;-70
2022/09/23 03:44:45;;;;;;;2.80;2.60;;;10.90;1.00;;;;;;5096275;28;20428;-75
2022/09/23 03:47:13;;;;;;;2.80;2.60;;;10.90;1.00;;;;;;5096938;28;20363;-70
2022/09/23 03:49:42;;;;;;;2.33;2.13;;;10.90;1.00;;;;;;5096762;28;20404;-77
2022/09/23 03:52:08;;;;;;;3.03;2.33;;;10.90;1.00;;;;;;5096739;28;20934;-77
2022/09/23 03:54:34;;;;;;;7.13;2.53;;;10.90;1.00;;;;;;5095910;28;20366;-70
2022/09/23 03:57:01;;;;;;;2.37;1.90;;;10.90;1.00;;;;;;5096519;28;20181;-71
2022/09/23 03:59:29;;;;;;;2.00;1.90;;;10.90;1.00;;;;;;5095792;28;20374;-76
2022/09/23 04:01:55;;;;;;;4.43;2.63;;;10.90;1.00;;;;;;5096600;28;20377;-75
2022/09/23 04:04:21;;;;;;;2.73;2.47;;;10.90;1.00;;;;;;5095790;28;20370;-75
2022/09/23 04:06:47;;;;;;;2.20;2.00;;;10.90;1.00;;;;;;5096388;28;20451;-76
2022/09/23 04:09:12;;;;;;;3.70;2.47;;;10.80;1.00;;;;;;5096323;28;20397;-69
2022/09/23 04:11:38;;;;;;;2.00;1.90;;;10.90;1.00;;;;;;5096256;28;20260;-76
2022/09/23 04:14:04;;;;;;;2.63;2.00;;;10.80;1.00;;;;;;5095618;28;20223;-75
2022/09/23 04:16:30;;;;;;;2.90;1.80;;;10.80;1.00;;;;;;5096141;28;20200;-76
2022/09/23 04:18:58;;;;;;;2.40;2.30;;;10.80;1.00;;;;;;5095454;28;20449;-73
2022/09/23 04:21:24;;;;;;;2.30;2.20;;;10.80;1.00;;;;;;5096013;28;20210;-74
2022/09/23 04:23:50;;;;;;;2.60;2.40;;;10.80;1.00;;;;;;5095417;28;20388;-70
2022/09/23 04:26:17;;;;;;;2.40;2.20;;;10.80;1.00;;;;;;5095964;28;20482;-70
2022/09/23 04:28:43;;;;;;;2.30;2.20;;;10.90;1.00;;;;;;5096094;28;20887;-75
2022/09/23 04:31:09;;;;;;;1.97;1.87;;;10.90;1.00;;;;;;5077175;28;20390;-69
2022/09/23 04:33:35;;;;;;;2.97;2.50;;;10.90;1.00;;;;;;5095856;28;20169;-76
2022/09/23 04:36:01;;;;;;;4.27;2.63;;;10.90;1.00;;;;;;5095209;28;20201;-76
2022/09/23 04:38:27;;;;;;;2.43;2.20;;;10.80;1.00;;;;;;5095636;28;20158;-70
2022/09/23 04:40:52;;;;;;;2.57;2.40;;;10.90;1.00;;;;;;5095503;28;20869;-76
2022/09/23 04:43:22;;;;;;;2.53;2.33;;;10.80;1.00;;;;;;5095870;28;20169;-70
2022/09/23 04:46:00;;;;;;;2.63;2.30;;;10.80;1.00;;;;;;5095200;28;20193;-69
2022/09/23 04:48:26;;;;;;;2.17;2.07;;;10.90;1.00;;;;;;5095563;28;20515;-70
2022/09/23 04:50:51;;;;;;;3.53;3.33;;;10.90;1.00;;;;;;5095536;28;20477;-75
2022/09/23 04:53:17;;;;;;;2.60;2.40;;;10.90;1.00;;;;;;5095728;28;20425;-69
2022/09/23 04:55:44;;;;;;;2.93;2.60;;;10.90;1.00;;;;;;5094729;28;20201;-70
2022/09/23 04:58:10;;;;;;;2.90;2.63;;;10.90;1.00;;;;;;5094830;28;20887;-70
2022/09/23 05:00:36;;;;;;;2.63;2.47;;;10.90;1.00;;;;;;5095152;28;20366;-70
2022/09/23 05:03:02;;;;;;;8.00;2.43;;;10.90;1.00;;;;;;5095421;28;20362;-69
2022/09/23 05:05:29;;;;;;;2.57;2.37;;;10.90;1.00;;;;;;5094536;28;20408;-76
2022/09/23 05:07:55;;;;;;;3.03;2.33;;;10.90;1.00;;;;;;5077526;28;20416;-76
2022/09/23 05:10:21;;;;;;;2.37;2.17;;;10.90;1.00;;;;;;5095192;28;20405;-69
2022/09/23 05:12:48;;;;;;;2.47;2.27;;;11.00;1.00;;;;;;5095206;28;20542;-76
2022/09/23 05:15:15;;;;;;;2.20;2.00;;;11.00;1.00;;;;;;5094062;28;20554;-70
2022/09/23 05:17:41;;;;;;;2.93;2.70;;;10.90;1.00;;;;;;5076550;28;20754;-76
2022/09/23 05:20:08;;;;;;;2.10;2.00;;;10.90;1.00;;;;;;5094925;28;20901;-70
2022/09/23 05:22:34;;;;;;;2.37;2.20;;;10.90;1.00;;;;;;5094881;28;20396;-70
2022/09/23 05:25:00;;;;;;;4.80;2.60;;;11.00;1.00;;;;;;5094437;28;20540;-70
2022/09/23 05:27:26;;;;;;;3.00;2.70;;;11.00;1.00;;;;;;5094931;28;20215;-75
2022/09/23 05:29:51;;;;;;;2.10;2.00;;;10.90;1.00;;;;;;5094888;28;20810;-76
2022/09/23 05:32:18;;;;;;;3.10;2.70;;;10.90;1.00;;;;;;5094798;28;20553;-73
2022/09/23 05:35:12;;;;;;;3.90;3.10;;;10.90;1.00;;;;;;5093347;28;20173;-76
2022/09/23 05:37:44;;;;;;;2.83;2.63;;;10.90;1.00;;;;;;5092538;28;20414;-74
2022/09/23 05:40:10;;;;;;;2.97;2.60;;;11.00;1.00;;;;;;5094476;28;20415;-69
2022/09/23 05:42:35;;;;;;;3.23;2.93;;;11.00;1.00;;;;;;5093829;28;20726;-70
2022/09/23 05:45:01;;;;;;;2.60;2.40;;;11.00;1.00;;;;;;5093388;28;20262;-76
2022/09/23 05:47:27;;;;;;;2.50;2.30;;;10.90;1.00;;;;;;5094577;28;20599;-70
2022/09/23 05:49:53;;;;;;;2.37;2.27;;;11.00;1.00;;;;;;5094678;28;20530;-75
2022/09/23 05:52:18;;;;;;;5.40;2.30;;;10.90;1.00;;;;;;5094392;28;20162;-69
2022/09/23 05:54:44;;;;;;;2.50;2.30;;;11.00;1.00;;;;;;5092460;28;20414;-74
2022/09/23 05:57:10;;;;;;;2.47;2.27;;;11.00;1.00;;;;;;5094246;28;20235;-74
2022/09/23 05:59:36;;;;;;;4.80;2.80;;;11.00;1.00;;;;;;5094289;28;20215;-74
2022/09/23 06:02:02;;;;;;;2.50;2.40;;;11.00;1.00;;;;;;5094309;28;20396;-74
2022/09/23 06:04:28;;;;;;;4.37;2.47;;;11.10;1.00;;;;;;5093590;28;20386;-75
2022/09/23 06:06:55;;;;;;;2.67;2.47;;;11.10;1.00;;;;;;5094136;28;20507;-76
2022/09/23 06:09:21;;;;;;;2.37;2.17;;;11.10;1.00;;;;;;5094246;28;20521;-74
2022/09/23 06:11:47;;;;;;;3.43;2.17;;;11.10;1.00;;;;;;5093225;28;20492;-69
2022/09/23 06:14:13;;;;;;;2.87;2.67;;;11.10;1.00;;;;;;5093396;28;20526;-74
2022/09/23 06:16:39;;;;;;;2.80;2.60;;;11.10;1.00;;;;;;5094035;28;20558;-72
2022/09/23 06:19:05;;;;;;;3.73;2.70;;;11.10;1.00;;;;;;5093876;28;20374;-70
2022/09/23 06:21:32;;;;;;;3.13;2.93;;;11.20;1.00;;;;;;5093908;28;20625;-70
2022/09/23 06:24:05;;;;;;;6.10;2.30;;;11.20;1.00;;;;;;5093605;28;20362;-75
2022/09/23 06:26:34;;;;;;;2.47;2.33;;;11.20;1.00;;;;;;5093766;28;20417;-70
2022/09/23 06:29:03;;;;;;;3.10;2.83;;;11.20;1.00;;;;;;5093397;28;20909;-75
2022/09/23 06:31:29;;;;;;;2.63;2.43;;;11.20;1.00;;;;;;5093157;28;20928;-75
2022/09/23 06:33:55;;;;;;;3.17;2.87;;;11.20;1.00;;;;;;5093189;28;20403;-70
2022/09/23 06:36:21;;;;;;;2.80;2.40;;;11.20;1.00;;;;;;5093455;28;20203;-76
2022/09/23 06:38:48;;;;;;;3.83;2.50;;;11.20;1.00;;;;;;5093507;28;20177;-75
2022/09/23 06:41:14;;;;;;;2.70;2.50;;;11.10;1.00;;;;;;5093489;28;20370;-70
2022/09/23 06:43:40;;;;;;;3.20;2.33;;;11.10;1.00;;;;;;5092847;28;20465;-75
2022/09/23 06:46:07;;;;;;;3.03;2.83;;;11.10;1.00;;;;;;5093279;28;20486;-74
2022/09/23 06:48:34;;;;;;;4.80;2.20;;;11.00;1.00;;;;;;5092478;28;20166;-70
2022/09/23 06:51:02;;;;;;;2.77;2.57;;;11.10;1.00;;;;;;5093400;28;20474;-75
2022/09/23 06:53:32;;;;;;;2.90;2.70;;;11.10;1.00;;;;;;5093091;28;20367;-70
2022/09/23 06:56:02;;;;;;;3.00;2.60;;;11.10;1.00;;;;;;5092421;28;20541;-75
2022/09/23 06:58:28;;;;;;;2.67;2.47;;;11.00;1.00;;;;;;5093294;28;20420;-75
2022/09/23 07:01:06;;;;;;;5.20;2.20;;;11.10;1.00;;;;;;5093108;28;20392;-75
2022/09/23 07:03:32;;;;;;;5.97;2.90;;;11.10;1.00;;;;;;5093008;28;20380;-70
2022/09/23 07:05:58;;;;;;;2.77;2.43;;;11.10;1.00;;;;;;5092840;28;20770;-69
2022/09/23 07:08:26;;;;;;;2.67;2.47;;;11.10;1.00;;;;;;5092538;28;20366;-73
2022/09/23 07:10:56;;;;;;;2.90;2.70;;;11.20;1.00;;;;;;5092903;28;20408;-70
2022/09/23 07:13:23;;;;;;;2.80;2.60;;;11.20;1.00;;;;;;5093004;28;20465;-70
2022/09/23 07:15:53;;;;;;;4.60;3.07;;;11.30;1.00;;;;;;5092531;28;20936;-70
2022/09/23 07:18:22;;;;;;;2.70;2.50;;;11.20;1.00;;;;;;5092913;28;20382;-75
2022/09/23 07:20:48;;;;;;;2.70;2.47;;;11.30;1.00;;;;;;5093040;28;20382;-75
2022/09/23 07:23:16;;;;;;;4.27;3.30;;;11.30;1.00;;;;;;5093087;28;20859;-76
2022/09/23 07:25:42;;;;;;;2.90;2.70;;;11.30;1.00;;;;;;5091413;28;20402;-75
2022/09/23 07:28:08;;;;;;;3.30;2.70;;;11.30;1.00;;;;;;5092949;28;20370;-69
2022/09/23 07:30:38;;;;;;;2.73;2.53;;;11.30;1.00;;;;;;5093093;28;20510;-75
2022/09/23 07:33:04;;;;;;;3.20;2.90;;;11.30;1.00;;;;;;5093013;28;20166;-75
2022/09/23 07:35:31;;;;;;;11.50;2.83;;;11.40;1.00;;;;;;5092497;28;20418;-75
2022/09/23 07:37:56;;;;;;;3.20;2.87;;;11.40;1.00;;;;;;5092892;28;20451;-75
2022/09/23 07:40:22;;;;;;;2.97;2.77;;;11.50;1.00;;;;;;5092822;28;20400;-70
2022/09/23 07:42:48;;;;;;;3.17;2.97;;;11.60;1.00;;;;;;5092918;28;20174;-76
2022/09/23 07:45:13;;;;;;;3.60;3.40;;;11.70;1.00;;;;;;5091533;28;20269;-74
2022/09/23 07:47:40;;;;;;;2.73;2.53;;;11.70;1.00;;;;;;5092543;28;20165;-69
2022/09/23 07:50:10;;;;;;;9.70;3.37;;;11.80;1.00;;;;;;5092719;28;20381;-75
2022/09/23 07:52:37;;;;;;;4.40;3.13;;;11.80;1.00;;;;;;5092839;28;20374;-69
2022/09/23 07:55:04;;;;;;;3.67;3.00;;;11.90;1.00;;;;;;5091930;28;20529;-76
2022/09/23 07:57:29;;;;;;;4.67;3.50;;;12.00;1.00;;;;;;5092586;28;20401;-75
2022/09/23 07:59:56;;;;;;;3.90;3.33;;;12.10;1.00;;;;;;5092752;28;20414;-76
2022/09/23 08:02:22;;;;;;;4.47;3.30;;;12.20;1.00;;;;;;5091927;28;21003;-75
2022/09/23 08:04:48;;;;;;;2.90;2.70;;;12.30;1.00;;;;;;5090562;28;20508;-70
2022/09/23 08:07:14;;;;;;;3.10;2.83;;;12.40;1.00;;;;;;5097516;28;20227;-70
2022/09/23 08:09:42;;;;;;;4.60;2.60;;;12.50;1.00;;;;;;5117165;28;20785;-70
2022/09/23 08:12:10;;;;;;;3.60;3.30;;;12.70;1.00;;;;;;5117801;28;20165;-76
2022/09/23 08:14:37;;;;;;;7.87;3.27;;;12.80;1.00;;;;;;5116278;28;20785;-75
2022/09/23 08:17:05;;;;;;;3.53;3.23;;;13.00;1.00;;;;;;5116729;28;20428;-71
2022/09/23 08:19:31;;;;;;;4.10;3.10;;;13.20;1.00;;;;;;5115471;28;20358;-72
2022/09/23 08:21:57;;;;;;;3.77;2.90;;;13.40;1.00;;;;;;5116774;28;20493;-75
2022/09/23 08:24:25;;;;;;;6.13;2.40;;;13.50;1.00;;;;;;5098372;28;20181;-70
2022/09/23 08:26:52;;;;;;;3.40;2.90;;;13.60;1.00;;;;;;5098314;28;20188;-72
2022/09/23 08:29:22;;;;;;;3.30;3.00;;;13.60;1.00;;;;;;5116493;28;20774;-75
2022/09/23 08:31:48;;;;;;;3.33;3.10;;;13.70;1.00;;;;;;5100662;28;20439;-72
2022/09/23 08:34:16;;;;;;;4.00;2.93;;;13.70;1.00;;;;;;5095014;28;20410;-69
2022/09/23 08:36:41;;;;;;;3.07;2.87;;;13.70;1.00;;;;;;5095771;28;20464;-72
2022/09/23 08:39:11;;;;;;;3.07;2.80;;;13.70;1.00;;;;;;5096361;28;20525;-70
2022/09/23 08:41:55;;;;;;;3.67;3.37;;;13.80;1.00;;;;;;5107492;28;20892;-75
2022/09/23 08:44:39;;;;;;;3.73;3.43;;;13.90;1.00;;;;;;5115511;28;20376;-75
2022/09/23 08:47:20;;;;;;;3.77;3.53;;;13.90;1.00;;;;;;5116566;28;20532;-76
2022/09/23 08:50:11;;;;;;;3.47;3.17;;;14.00;1.00;;;;;;5096108;28;20860;-75
2022/09/23 08:53:03;;;;;;;2.63;2.43;;;14.30;1.00;;;;;;5095384;28;20410;-71
2022/09/23 08:55:42;;;;;;;3.40;2.40;;;14.40;1.00;;;;;;5094961;28;20456;-71
2022/09/23 08:58:42;;;;;;;2.87;2.67;;;14.60;1.00;;;;;;5095091;28;20893;-75
2022/09/23 09:01:23;;;;;;;3.53;3.23;;;14.60;1.00;;;;;;5095537;28;20405;-71
2022/09/23 09:03:57;;;;;;;4.10;2.87;;;14.70;1.00;;;;;;5094258;28;20446;-75
2022/09/23 09:06:38;;;;;;;3.20;2.80;;;14.80;1.00;;;;;;5095314;28;20514;-75
2022/09/23 09:09:10;;;;;;;3.10;2.80;;;14.90;1.00;;;;;;5094941;28;20396;-75
2022/09/23 09:11:42;;;;;;;2.90;2.70;;;14.90;1.00;;;;;;5096222;28;20468;-71
2022/09/23 09:14:18;;;;;;;2.90;2.70;;;15.00;1.00;;;;;;5114634;28;20422;-75
2022/09/23 09:17:16;;;;;;;3.90;2.20;;;15.20;1.00;;;;;;5115434;28;20465;-75
2022/09/23 09:20:09;;;;;;;3.00;2.80;;;15.30;1.00;;;;;;5091065;28;20420;-72
2022/09/23 09:22:54;;;;;;;4.37;2.90;;;15.50;1.00;;;;;;5107672;28;21015;-72
2022/09/23 09:25:48;;;;;;;2.83;2.63;;;15.70;1.00;;;;;;5114325;28;20397;-75
2022/09/23 09:28:19;;;;;;;2.60;2.40;;;16.00;1.00;;;;;;5114925;28;20414;-76
2022/09/23 09:30:51;;;;;;;3.07;2.63;;;16.00;1.00;;;;;;5096847;28;20812;-71
2022/09/23 09:33:20;;;;;;;3.03;2.80;;;15.90;1.00;;;;;;5115283;28;20775;-75
2022/09/23 09:35:58;;;;;;;2.67;2.47;;;16.10;1.00;;;;;;5113173;28;20477;-75
2022/09/23 09:38:26;;;;;;;2.60;2.40;;;16.30;1.00;;;;;;5094688;28;20423;-70
2022/09/23 09:40:58;;;;;;;4.17;3.10;;;16.50;1.00;;;;;;5094671;28;20400;-71
2022/09/23 09:43:24;;;;;;;4.17;2.37;;;16.60;1.00;;;;;;5094480;28;20427;-75
2022/09/23 09:46:07;;;;;;;6.23;2.60;;;16.60;1.00;;;;;;5093878;28;20426;-72
2022/09/23 09:48:53;;;;;;;3.07;2.70;;;16.80;1.00;;;;;;5094180;28;20405;-75
2022/09/23 09:51:21;;;;;;;2.60;2.40;;;17.10;1.00;;;;;;5110687;28;20434;-72
2022/09/23 09:53:50;;;;;;;2.83;2.40;;;17.40;1.00;;;;;;5114123;28;20399;-72
2022/09/23 09:56:18;;;;;;;6.87;2.30;;;17.60;1.00;;;;;;5113569;28;20463;-71
2022/09/23 09:59:10;;;;;;;2.43;2.30;;;17.70;1.00;;;;;;5114511;28;20779;-71
2022/09/23 10:01:36;;;;;;;3.40;2.70;;;17.70;1.00;;;;;;5114610;28;20407;-74
2022/09/23 10:04:23;;;;;;;4.13;2.10;;;17.70;1.00;;;;;;5113586;28;20410;-71
2022/09/23 10:07:11;;;;;;;2.70;2.50;;;17.80;1.00;;;;;;5103111;28;20451;-75
2022/09/23 10:09:38;;;;;;;2.60;2.40;;;18.10;1.00;;;;;;5094216;28;20412;-71
2022/09/23 10:12:33;;;;;;;6.70;2.53;;;18.30;1.00;;;;;;5094099;28;20760;-72
2022/09/23 10:14:59;;;;;;;3.10;2.03;;;18.50;1.00;;;;;;5092980;28;20427;-74
2022/09/23 10:17:48;;;;;;;3.07;2.17;;;18.80;1.00;;;;;;5097816;28;20423;-71
2022/09/23 10:20:14;;;;;;;3.33;2.83;;;19.30;1.00;;;;;;5114185;28;20524;-71
2022/09/23 10:22:41;;;;;;;2.87;2.10;;;19.70;1.00;;;;;;5114102;28;20490;-71
2022/09/23 10:25:23;;;;;;;4.03;2.00;;;20.10;1.00;;;;;;5113048;28;20709;-76
2022/09/23 10:27:49;;;;;;;2.30;2.10;;;20.30;1.00;;;;;;5101118;28;20842;-75
2022/09/23 10:30:20;;;;;;;3.20;2.97;;;19.90;1.00;;;;;;5093178;28;20407;-75
2022/09/23 10:32:47;;;;;;;2.60;2.40;;;19.50;1.00;;;;;;5093152;28;20189;-75
2022/09/23 10:35:21;;;;;;;2.40;2.20;;;19.60;1.00;;;;;;5092591;28;20466;-75
2022/09/23 10:37:55;;;;;;;2.83;2.57;;;19.80;1.00;;;;;;5093748;28;20423;-73
2022/09/23 10:46:46;;;;;;;3.40;2.40;;;19.70;1.00;;;;;;5093327;28;20519;-76
2022/09/23 10:49:30;;;;;;;2.10;1.90;;;19.70;1.00;;;;;;5093398;28;20403;-74
2022/09/23 10:52:15;;;;;;;2.37;1.97;;;19.30;1.00;;;;;;5093439;28;20442;-73
2022/09/23 10:54:58;;;;;;;3.63;3.33;;;19.10;1.00;;;;;;5091898;28;20915;-75
2022/09/23 10:58:03;;;;;;;3.37;2.03;;;18.80;1.00;;;;;;5093282;28;20431;-72
2022/09/23 11:00:44;;;;;;;2.47;2.13;;;18.70;1.00;;;;;;5093498;28;20399;-76
2022/09/23 11:03:44;;;;;;;2.63;2.40;;;18.50;1.00;;;;;;5092891;28;20395;-75
2022/09/23 11:06:47;;;;;;;2.77;2.30;;;18.50;1.00;;;;;;5093092;28;20488;-75
2022/09/23 11:09:43;;;;;;;2.50;2.30;;;18.50;1.00;;;;;;5093163;28;20490;-72
2022/09/23 11:12:31;;;;;;;3.20;2.60;;;18.60;1.00;;;;;;5093152;28;20491;-74
2022/09/23 11:15:11;;;;;;;4.30;2.60;;;18.70;1.00;;;;;;5096026;28;20434;-77
2022/09/23 11:17:58;;;;;;;3.80;2.70;;;18.80;1.00;;;;;;5113433;28;20390;-75
2022/09/23 11:20:43;;;;;;;2.37;2.17;;;18.80;1.00;;;;;;5113048;28;20401;-72
2022/09/23 11:23:27;;;;;;;2.80;2.60;;;18.70;1.00;;;;;;5107959;28;20426;-72
2022/09/23 11:26:21;;;;;;;2.57;2.37;;;18.60;1.00;;;;;;5092429;28;20480;-72
2022/09/23 11:29:05;;;;;;;2.47;2.27;;;18.50;1.00;;;;;;5092890;28;20900;-76
2022/09/23 11:31:31;;;;;;;4.40;2.60;;;18.60;1.00;;;;;;5092706;28;20411;-75
2022/09/23 11:34:19;;;;;;;8.10;2.43;;;18.70;1.00;;;;;;5073999;28;20412;-76
2022/09/23 11:36:55;;;;;;;2.90;2.40;;;18.80;1.00;;;;;;5092757;28;20546;-76
2022/09/23 11:39:34;;;;;;;2.73;2.30;;;18.80;1.00;;;;;;5074499;28;20417;-76
2022/09/23 11:42:01;;;;;;;3.00;2.33;;;19.00;1.00;;;;;;5076898;28;20442;-72
2022/09/23 11:44:41;;;;;;;2.77;2.57;;;19.00;1.00;;;;;;5096012;28;20653;-76
2022/09/23 11:47:35;;;;;;;2.80;2.60;;;18.90;1.00;;;;;;5096962;28;20414;-76
2022/09/23 11:50:19;;;;;;;5.40;3.40;;;19.00;1.00;;;;;;5105422;28;20429;-70
2022/09/23 11:56:30;;;;;;;2.53;2.10;;;19.10;1.00;;;;;;5114422;28;20810;-73
2022/09/23 11:59:48;;;;;;;;;;;;;;;;;;;;;
2022/09/23 12:02:40;;;;;;;2.90;2.37;;;19.30;1.00;;;;;;5073322;28;20415;-75
2022/09/23 12:05:14;;;;;;;5.00;2.10;;;19.20;1.00;;;;;;5095589;28;20782;-76
2022/09/23 12:07:52;;;;;;;3.37;2.40;;;19.20;1.00;;;;;;5101586;28;20455;-73
2022/09/23 12:10:21;;;;;;;4.30;2.13;;;19.00;1.00;;;;;;5116807;28;20390;-76
2022/09/23 12:13:16;;;;;;;2.13;2.03;;;19.00;1.00;;;;;;5107415;28;20396;-71
2022/09/23 12:16:02;;;;;;;2.30;2.10;;;18.90;1.00;;;;;;5094535;28;20454;-75
2022/09/23 12:18:54;;;;;;;2.40;2.30;;;19.10;1.00;;;;;;5078193;28;20411;-70
2022/09/23 12:21:38;;;;;;;2.07;1.97;;;19.00;1.00;;;;;;5041314;28;20415;-77
2022/09/23 12:24:31;;;;;;;3.77;2.30;;;19.10;1.00;;;;;;5091524;28;20431;-75
2022/09/23 12:27:04;;;;;;;2.93;2.20;;;19.40;1.00;;;;;;5096155;28;20407;-72
2022/09/23 12:29:31;;;;;;;2.23;2.03;;;19.70;1.00;;;;;;5096196;28;20895;-75
2022/09/23 12:31:58;;;;;;;2.43;2.10;;;20.10;1.00;;;;;;5103590;28;20429;-74
2022/09/23 12:34:38;;;;;;;2.23;2.00;;;20.30;1.00;;;;;;5079409;28;20416;-75
2022/09/23 12:37:08;;;;;;;2.50;2.30;;;20.50;1.00;;;;;;5098364;28;20451;-72
2022/09/23 12:39:37;;;;;;;2.77;2.57;;;20.40;1.00;;;;;;5077905;28;20403;-74
2022/09/23 12:42:16;;;;;;;2.20;2.00;;;20.30;1.00;;;;;;5106012;28;20411;-71
2022/09/23 12:45:37;;;;;;;2.57;2.37;;;20.30;1.00;;;;;;5111558;28;20770;-76
2022/09/23 12:48:47;;;;;;;2.50;2.40;;;20.20;1.00;;;;;;5112296;28;20442;-72
2022/09/23 12:51:20;;;;;;;2.67;2.47;;;20.00;1.00;;;;;;5094581;28;20406;-72
2022/09/23 12:54:20;;;;;;;3.10;2.00;;;19.80;1.00;;;;;;5114454;28;20411;-75
2022/09/23 12:56:58;;;;;;;4.60;2.57;;;19.70;1.00;;;;;;5115841;28;20818;-72
2022/09/23 12:59:27;;;;;;;3.00;2.80;;;19.80;1.00;;;;;;5099068;28;20427;-72
2022/09/23 13:01:54;;;;;;;2.80;2.60;;;19.70;1.00;;;;;;5095406;28;20938;-75
2022/09/23 13:07:44;;;;;;;5.07;2.37;;;19.80;1.00;;;;;;5095116;28;20800;-74
2022/09/23 13:10:45;;;;;;;4.47;2.10;;;19.90;1.00;;;;;;5094769;28;20736;-72
2022/09/23 13:13:36;;;;;;;9.70;2.50;;;20.00;1.00;;;;;;5095150;28;20939;-70
2022/09/23 13:16:30;;;;;;;6.73;2.03;;;20.10;1.00;;;;;;5076549;28;20463;-76
2022/09/23 13:19:22;;;;;;;4.00;2.90;;;20.20;1.00;;;;;;5095144;28;20400;-75
2022/09/23 13:22:09;;;;;;;4.47;2.53;;;20.30;1.00;;;;;;5094875;28;20431;-72
2022/09/23 13:24:41;;;;;;;3.00;2.03;;;20.60;1.00;;;;;;5094004;28;20564;-72
2022/09/23 13:27:21;;;;;;;3.07;2.50;;;20.50;1.00;;;;;;5094210;28;20407;-75
2022/09/23 13:29:54;;;;;;;2.83;2.53;;;20.40;1.00;;;;;;5094878;28;20403;-71
2022/09/23 13:32:24;;;;;;;3.10;2.00;;;20.30;1.00;;;;;;5094068;28;20408;-72
2022/09/23 13:35:27;;;;;;;2.20;2.00;;;20.10;1.00;;;;;;5093405;28;20443;-72
2022/09/23 13:37:54;;;;;;;2.40;2.20;;;20.10;1.00;;;;;;5094634;28;20415;-72
2022/09/23 13:40:28;;;;;;;2.07;1.97;;;20.00;1.00;;;;;;5094585;28;20490;-71
2022/09/23 13:43:00;;;;;;;2.53;2.33;;;19.90;1.00;;;;;;5094277;28;20988;-72
2022/09/23 13:45:29;;;;;;;2.47;2.00;;;19.80;1.00;;;;;;5093223;28;20412;-72
2022/09/23 13:48:13;;;;;;;4.40;2.23;;;19.80;1.00;;;;;;5094526;28;20399;-71